createdAt,value
2019-06-20T00:00:17.423Z,4.47
2019-06-20T00:02:46.091Z,4.10
2019-06-20T00:05:14.720Z,5.67
2019-06-20T00:07:43.671Z,5.10
2019-06-20T00:10:12.674Z,5.57
2019-06-20T00:12:41.656Z,4.27
2019-06-20T00:15:10.323Z,5.23
2019-06-20T00:17:38.896Z,4.37
2019-06-20T00:20:07.650Z,3.87
2019-06-20T00:22:36.312Z,7.13
2019-06-20T00:25:06.275Z,4.43
2019-06-20T00:27:34.880Z,6.43
2019-06-20T00:30:04.270Z,7.43
2019-06-20T00:32:32.914Z,7.37
2019-06-20T00:35:01.895Z,7.20
2019-06-20T00:37:30.530Z,7.93
2019-06-20T00:39:59.119Z,6.10
2019-06-20T00:42:27.747Z,5.97
2019-06-20T00:44:56.695Z,6.57
2019-06-20T00:47:27.551Z,4.40
2019-06-20T00:49:56.182Z,6.43
2019-06-20T00:52:24.775Z,7.43
2019-06-20T00:54:53.402Z,8.17
2019-06-20T00:57:22.395Z,6.23
2019-06-20T00:59:51.122Z,4.33
2019-06-20T01:02:20.122Z,5.20
2019-06-20T01:04:48.767Z,6.80
2019-06-20T01:07:17.441Z,5.77
2019-06-20T01:09:46.208Z,4.53
2019-06-20T01:12:14.762Z,5.30
2019-06-20T01:14:43.703Z,6.00
2019-06-20T01:17:12.801Z,5.10
2019-06-20T01:19:41.456Z,4.87
2019-06-20T01:22:10.106Z,7.03
2019-06-20T01:24:40.141Z,7.10
2019-06-20T01:27:08.707Z,8.07
2019-06-20T01:29:37.437Z,8.03
2019-06-20T01:32:06.162Z,5.00
2019-06-20T01:34:35.133Z,6.50
2019-06-20T01:37:04.137Z,5.10
2019-06-20T01:39:33.118Z,5.57
2019-06-20T01:42:01.859Z,4.67
2019-06-20T01:44:30.494Z,5.63
2019-06-20T01:46:59.595Z,5.10
2019-06-20T01:49:28.207Z,4.80
2019-06-20T01:51:57.131Z,6.83
2019-06-20T01:54:25.698Z,5.03
2019-06-20T01:56:54.259Z,8.77
2019-06-20T01:59:22.847Z,6.97
2019-06-20T02:01:51.811Z,5.30
2019-06-20T02:04:20.478Z,5.33
2019-06-20T02:06:49.178Z,5.03
2019-06-20T02:09:18.161Z,6.47
2019-06-20T02:11:47.058Z,5.63
2019-06-20T02:14:16.043Z,5.27
2019-06-20T02:16:44.716Z,5.80
2019-06-20T02:19:13.412Z,4.27
2019-06-20T02:21:42.147Z,5.83
2019-06-20T02:24:10.706Z,9.90
2019-06-20T02:26:39.779Z,7.40
2019-06-20T02:29:08.370Z,5.07
2019-06-20T02:31:37.352Z,6.03
2019-06-20T02:34:06.054Z,7.97
2019-06-20T02:36:34.801Z,7.93
2019-06-20T02:39:03.583Z,7.30
2019-06-20T02:41:32.456Z,8.63
2019-06-20T02:44:01.015Z,7.97
2019-06-20T02:46:30.180Z,7.77
2019-06-20T02:48:58.742Z,6.63
2019-06-20T02:51:27.546Z,6.90
2019-06-20T02:53:56.317Z,11.43
2019-06-20T02:56:24.965Z,11.03
2019-06-20T02:58:53.580Z,7.90
2019-06-20T03:01:23.674Z,6.87
2019-06-20T03:03:52.621Z,10.57
2019-06-20T03:06:21.609Z,8.40
2019-06-20T03:08:50.199Z,7.80
2019-06-20T03:11:18.829Z,8.97
2019-06-20T03:13:47.398Z,11.20
2019-06-20T03:16:16.060Z,8.83
2019-06-20T03:18:44.679Z,5.03
2019-06-20T03:21:13.267Z,6.47
2019-06-20T03:23:41.894Z,5.77
2019-06-20T03:26:10.552Z,6.90
2019-06-20T03:28:39.250Z,5.77
2019-06-20T03:31:07.931Z,5.70
2019-06-20T03:33:36.569Z,8.87
2019-06-20T03:36:05.271Z,7.33
2019-06-20T03:38:34.222Z,6.00
2019-06-20T03:41:03.212Z,6.30
2019-06-20T03:43:32.254Z,6.20
2019-06-20T03:46:00.850Z,4.40
2019-06-20T03:48:29.412Z,5.33
2019-06-20T03:50:58.040Z,4.30
2019-06-20T03:53:26.636Z,4.70
2019-06-20T03:55:55.618Z,5.43
2019-06-20T03:58:24.212Z,5.20
2019-06-20T04:00:53.091Z,6.03
2019-06-20T04:03:21.679Z,7.40
2019-06-20T04:05:50.231Z,5.00
2019-06-20T04:08:18.840Z,4.10
2019-06-20T04:10:47.511Z,5.73
2019-06-20T04:13:16.825Z,8.50
2019-06-20T04:15:45.455Z,5.70
2019-06-20T04:18:14.440Z,4.37
2019-06-20T04:20:43.031Z,5.03
2019-06-20T04:23:11.686Z,8.10
2019-06-20T04:25:40.293Z,5.90
2019-06-20T04:28:09.248Z,6.97
2019-06-20T04:30:37.931Z,5.47
2019-06-20T04:33:06.582Z,6.27
2019-06-20T04:35:35.536Z,4.43
2019-06-20T04:38:04.155Z,6.30
2019-06-20T04:40:33.184Z,4.60
2019-06-20T04:43:01.886Z,4.50
2019-06-20T04:45:50.818Z,5.37
2019-06-20T04:48:19.529Z,5.43
2019-06-20T04:50:48.127Z,5.33
2019-06-20T04:53:16.828Z,7.47
2019-06-20T04:55:45.479Z,5.50
2019-06-20T04:58:14.460Z,4.13
2019-06-20T05:00:43.114Z,5.07
2019-06-20T05:03:11.770Z,3.70
2019-06-20T05:05:40.369Z,5.37
2019-06-20T05:08:08.943Z,4.30
2019-06-20T05:10:37.579Z,4.83
2019-06-20T05:13:06.249Z,3.60
2019-06-20T05:15:51.089Z,5.20
2019-06-20T05:18:05.632Z,4.23
2019-06-20T05:20:34.827Z,4.87
2019-06-20T05:23:03.971Z,5.77
2019-06-20T05:25:32.606Z,4.30
2019-06-20T05:28:01.221Z,4.60
2019-06-20T05:30:29.927Z,6.77
2019-06-20T05:32:59.656Z,6.07
2019-06-20T05:35:28.303Z,5.80
2019-06-20T05:37:57.336Z,9.00
2019-06-20T05:40:26.591Z,8.17
2019-06-20T05:42:55.220Z,5.57
2019-06-20T05:45:23.946Z,8.40
2019-06-20T05:47:52.799Z,5.27
2019-06-20T05:50:21.727Z,5.90
2019-06-20T05:52:50.363Z,6.20
2019-06-20T05:55:19.190Z,6.93
2019-06-20T05:57:47.886Z,5.30
2019-06-20T06:00:18.448Z,6.47
2019-06-20T06:02:47.112Z,4.43
2019-06-20T06:05:15.812Z,6.53
2019-06-20T06:07:44.479Z,5.57
2019-06-20T06:10:13.609Z,4.57
2019-06-20T06:12:42.216Z,3.87
2019-06-20T06:15:11.198Z,6.83
2019-06-20T06:17:39.786Z,7.07
2019-06-20T06:20:09.295Z,5.07
2019-06-20T06:22:38.384Z,5.17
2019-06-20T06:25:07.887Z,3.50
2019-06-20T06:27:36.826Z,6.07
2019-06-20T06:30:09.682Z,7.77
2019-06-20T06:32:40.332Z,5.43
2019-06-20T06:35:09.890Z,6.70
2019-06-20T06:37:38.911Z,5.17
2019-06-20T06:40:09.815Z,9.33
2019-06-20T06:42:38.467Z,4.17
2019-06-20T06:45:07.869Z,5.77
2019-06-20T06:47:36.638Z,5.17
2019-06-20T06:50:08.899Z,3.50
2019-06-20T06:52:37.924Z,6.90
2019-06-20T06:55:07.296Z,4.00
2019-06-20T06:57:35.962Z,4.23
2019-06-20T07:00:12.838Z,4.87
2019-06-20T07:02:41.481Z,6.60
2019-06-20T07:05:10.847Z,8.57
2019-06-20T07:07:39.547Z,3.00
2019-06-20T07:10:09.256Z,5.47
2019-06-20T07:12:37.946Z,4.23
2019-06-20T07:15:07.890Z,4.90
2019-06-20T07:17:36.676Z,3.83
2019-06-20T07:20:06.976Z,5.37
2019-06-20T07:22:36.398Z,4.23
2019-06-20T07:25:08.619Z,4.53
2019-06-20T07:27:37.136Z,3.37
2019-06-20T07:30:10.987Z,3.60
2019-06-20T07:32:39.717Z,4.40
2019-06-20T07:35:10.063Z,3.70
2019-06-20T07:37:38.692Z,3.87
2019-06-20T07:40:09.906Z,4.13
2019-06-20T07:42:38.987Z,3.23
2019-06-20T07:45:08.582Z,4.07
2019-06-20T07:47:38.212Z,6.77
2019-06-20T07:50:08.359Z,3.10
2019-06-20T07:52:37.424Z,4.83
2019-06-20T07:55:07.992Z,4.93
2019-06-20T07:57:36.643Z,3.83
2019-06-20T08:00:07.926Z,3.33
2019-06-20T08:02:36.746Z,5.03
2019-06-20T08:05:07.011Z,5.00
2019-06-20T08:07:35.684Z,3.27
2019-06-20T08:10:10.142Z,6.57
2019-06-20T08:12:38.796Z,3.87
2019-06-20T08:15:14.868Z,4.97
2019-06-20T08:17:39.076Z,4.13
2019-06-20T08:20:08.775Z,2.87
2019-06-20T08:22:37.442Z,3.00
2019-06-20T08:25:06.842Z,2.53
2019-06-20T08:27:51.157Z,3.73
2019-06-20T08:30:31.467Z,3.30
2019-06-20T08:33:03.618Z,3.10
2019-06-20T08:35:31.801Z,3.03
2019-06-20T08:38:03.711Z,4.73
2019-06-20T08:40:42.026Z,3.80
2019-06-20T08:43:11.211Z,4.15
2019-06-20T08:45:41.042Z,3.47
2019-06-20T08:48:09.852Z,4.12
2019-06-20T08:50:39.179Z,6.72
2019-06-20T08:53:08.282Z,4.78
2019-06-20T08:55:37.208Z,5.72
2019-06-20T08:58:05.959Z,6.10
2019-06-20T09:00:37.245Z,3.85
2019-06-20T09:03:06.514Z,5.17
2019-06-20T09:05:35.679Z,6.40
2019-06-20T09:08:05.280Z,3.47
2019-06-20T09:10:41.134Z,6.85
2019-06-20T09:13:12.234Z,3.47
2019-06-20T09:15:42.163Z,3.02
2019-06-20T09:18:10.899Z,3.20
2019-06-20T09:20:39.732Z,3.25
2019-06-20T09:23:08.486Z,3.02
2019-06-20T09:25:37.208Z,2.72
2019-06-20T09:28:07.141Z,2.60
2019-06-20T09:30:36.900Z,3.30
2019-06-20T09:33:06.495Z,5.10
2019-06-20T09:35:35.443Z,3.87
2019-06-20T09:38:04.852Z,5.60
2019-06-20T09:40:34.827Z,3.02
2019-06-20T09:43:03.977Z,3.70
2019-06-20T09:45:34.579Z,3.52
2019-06-20T09:48:03.303Z,3.02
2019-06-20T09:50:32.201Z,3.40
2019-06-20T09:53:00.839Z,2.70
2019-06-20T09:55:30.715Z,3.05
2019-06-20T09:57:59.480Z,4.85
2019-06-20T10:00:30.160Z,3.00
2019-06-20T10:02:58.723Z,5.22
2019-06-20T10:05:27.752Z,2.80
2019-06-20T10:07:56.749Z,4.05
2019-06-20T10:10:29.303Z,5.33
2019-06-20T10:12:58.388Z,3.08
2019-06-20T10:15:29.579Z,2.98
2019-06-20T10:17:58.819Z,5.25
2019-06-20T10:20:28.758Z,6.12
2019-06-20T10:22:57.688Z,5.95
2019-06-20T10:25:26.652Z,2.95
2019-06-20T10:27:55.279Z,4.58
2019-06-20T10:30:25.284Z,3.50
2019-06-20T10:32:53.944Z,6.83
2019-06-20T10:35:22.887Z,3.42
2019-06-20T10:37:53.008Z,3.15
2019-06-20T10:40:22.620Z,4.53
2019-06-20T10:42:52.924Z,3.83
2019-06-20T10:45:23.826Z,3.30
2019-06-20T10:47:52.964Z,6.50
2019-06-20T10:50:22.886Z,3.85
2019-06-20T10:52:52.021Z,4.58
2019-06-20T10:55:21.134Z,4.15
2019-06-20T10:57:50.031Z,3.75
2019-06-20T11:00:30.225Z,3.72
2019-06-20T11:02:51.271Z,3.75
2019-06-20T11:05:20.211Z,3.55
2019-06-20T11:07:49.992Z,3.67
2019-06-20T11:10:21.748Z,2.62
2019-06-20T11:12:55.810Z,6.17
2019-06-20T11:15:22.242Z,4.03
2019-06-20T11:17:50.795Z,6.42
2019-06-20T11:20:20.199Z,4.70
2019-06-20T11:22:48.786Z,3.50
2019-06-20T11:25:19.406Z,3.75
2019-06-20T11:27:48.375Z,3.83
2019-06-20T11:30:22.799Z,3.05
2019-06-20T11:32:51.771Z,2.83
2019-06-20T11:35:20.470Z,4.25
2019-06-20T11:37:49.202Z,2.22
2019-06-20T11:40:18.826Z,2.95
2019-06-20T11:42:47.458Z,2.72
2019-06-20T11:45:17.152Z,2.52
2019-06-20T11:47:47.130Z,2.72
2019-06-20T11:50:17.019Z,3.20
2019-06-20T11:52:45.990Z,4.95
2019-06-20T11:55:16.333Z,2.42
2019-06-20T11:57:45.117Z,2.27
2019-06-20T12:00:15.463Z,3.45
2019-06-20T12:02:45.714Z,3.12
2019-06-20T12:05:15.215Z,2.65
2019-06-20T12:07:47.507Z,4.20
2019-06-20T12:10:14.923Z,3.37
2019-06-20T12:12:44.722Z,3.00
2019-06-20T12:15:14.277Z,2.65
2019-06-20T12:17:43.386Z,3.62
2019-06-20T12:20:14.115Z,5.53
2019-06-20T12:22:43.612Z,3.05
2019-06-20T12:25:14.440Z,7.05
2019-06-20T12:27:43.403Z,2.98
2019-06-20T12:30:15.140Z,4.62
2019-06-20T12:32:44.733Z,3.00
2019-06-20T12:35:14.099Z,8.23
2019-06-20T12:37:45.213Z,2.72
2019-06-20T12:40:15.477Z,2.30
2019-06-20T12:42:44.876Z,3.42
2019-06-20T12:45:15.664Z,2.15
2019-06-20T12:47:45.646Z,4.25
2019-06-20T12:50:15.197Z,3.52
2019-06-20T12:52:45.445Z,3.10
2019-06-20T12:55:14.670Z,2.40
2019-06-20T12:57:44.161Z,2.45
2019-06-20T13:00:14.675Z,3.72
2019-06-20T13:02:43.793Z,2.77
2019-06-20T13:05:14.045Z,2.22
2019-06-20T13:07:44.214Z,4.17
2019-06-20T13:10:14.247Z,2.47
2019-06-20T13:12:46.166Z,3.00
2019-06-20T13:15:15.320Z,3.55
2019-06-20T13:17:45.003Z,3.02
2019-06-20T13:20:15.336Z,3.77
2019-06-20T13:22:44.833Z,3.35
2019-06-20T13:25:14.495Z,3.62
2019-06-20T13:27:43.563Z,3.40
2019-06-20T13:30:12.819Z,3.37
2019-06-20T13:32:42.102Z,4.17
2019-06-20T13:35:12.218Z,5.17
2019-06-20T13:37:42.069Z,2.80
2019-06-20T13:40:14.706Z,2.40
2019-06-20T13:42:44.191Z,5.33
2019-06-20T13:45:25.378Z,2.20
2019-06-20T13:47:54.407Z,3.30
2019-06-20T13:50:24.906Z,5.80
2019-06-20T13:52:53.607Z,2.25
2019-06-20T13:55:22.318Z,4.12
2019-06-20T13:57:51.395Z,2.42
2019-06-20T14:00:22.698Z,2.60
2019-06-20T14:02:51.836Z,2.52
2019-06-20T14:05:20.899Z,2.60
2019-06-20T14:07:53.296Z,1.95
2019-06-20T14:10:20.771Z,2.55
2019-06-20T14:12:49.596Z,3.70
2019-06-20T14:15:18.518Z,2.25
2019-06-20T14:17:49.795Z,5.97
2019-06-20T14:20:18.931Z,2.77
2019-06-20T14:22:49.162Z,9.85
2019-06-20T14:25:19.238Z,5.05
2019-06-20T14:27:49.012Z,3.27
2019-06-20T14:30:19.020Z,15.60
2019-06-20T14:32:49.212Z,33.53
2019-06-20T14:35:18.368Z,15.43
2019-06-20T14:37:47.883Z,9.67
2019-06-20T14:40:18.307Z,7.40
2019-06-20T14:42:47.922Z,6.47
2019-06-20T14:45:17.108Z,6.60
2019-06-20T14:47:45.806Z,4.37
2019-06-20T14:50:15.500Z,5.47
2019-06-20T14:52:46.080Z,4.40
2019-06-20T14:55:14.559Z,3.17
2019-06-20T14:57:44.594Z,5.50
2019-06-20T15:00:14.458Z,4.83
2019-06-20T15:02:43.780Z,3.10
2019-06-20T15:05:18.294Z,3.87
2019-06-20T15:07:49.417Z,3.30
2019-06-20T15:10:18.596Z,2.72
2019-06-20T15:12:48.314Z,2.22
2019-06-20T15:15:18.678Z,3.72
2019-06-20T15:17:51.428Z,4.22
2019-06-20T15:20:18.559Z,2.77
2019-06-20T15:22:49.262Z,2.75
2019-06-20T15:25:18.334Z,3.60
2019-06-20T15:27:48.100Z,3.02
2019-06-20T15:30:17.943Z,7.47
2019-06-20T15:33:00.935Z,2.72
2019-06-20T15:35:17.400Z,2.80
2019-06-20T15:37:46.702Z,2.33
2019-06-20T15:40:16.695Z,2.70
2019-06-20T15:42:45.343Z,4.20
2019-06-20T15:45:14.659Z,2.98
2019-06-20T15:47:43.321Z,3.47
2019-06-20T15:50:12.249Z,5.33
2019-06-20T15:52:42.019Z,4.50
2019-06-20T15:55:12.098Z,2.35
2019-06-20T15:58:00.408Z,2.83
2019-06-20T16:00:29.166Z,2.60
2019-06-20T16:03:09.534Z,4.03
2019-06-20T16:05:28.201Z,2.83
2019-06-20T16:07:57.284Z,4.30
2019-06-20T16:10:25.904Z,3.60
2019-06-20T16:12:54.622Z,2.83
2019-06-20T16:15:23.354Z,4.33
2019-06-20T16:17:52.539Z,3.03
2019-06-20T16:20:22.051Z,3.33
2019-06-20T16:22:51.221Z,3.83
2019-06-20T16:25:20.320Z,4.10
2019-06-20T16:27:49.351Z,6.07
2019-06-20T16:30:19.462Z,2.43
2019-06-20T16:32:48.195Z,3.23
2019-06-20T16:35:17.126Z,4.23
2019-06-20T16:37:45.848Z,2.20
2019-06-20T16:40:14.878Z,2.70
2019-06-20T16:42:43.778Z,2.30
2019-06-20T16:45:12.903Z,2.27
2019-06-20T16:47:41.868Z,2.83
2019-06-20T16:50:12.102Z,2.57
2019-06-20T16:52:40.676Z,1.43
2019-06-20T16:55:10.197Z,2.17
2019-06-20T16:57:39.188Z,3.27
2019-06-20T17:00:10.508Z,1.83
2019-06-20T17:02:39.434Z,2.37
2019-06-20T17:05:09.540Z,3.83
2019-06-20T17:07:38.301Z,3.50
2019-06-20T17:10:08.974Z,1.20
2019-06-20T17:12:58.731Z,2.37
2019-06-20T17:15:27.647Z,1.63
2019-06-20T17:17:56.634Z,1.57
2019-06-20T17:20:25.485Z,3.43
2019-06-20T17:22:54.488Z,1.33
2019-06-20T17:25:23.701Z,3.50
2019-06-20T17:27:52.663Z,2.23
2019-06-20T17:30:21.900Z,1.67
2019-06-20T17:32:50.963Z,1.50
2019-06-20T17:35:20.087Z,4.53
2019-06-20T17:37:48.787Z,1.30
2019-06-20T17:40:17.911Z,1.20
2019-06-20T17:42:46.587Z,1.90
2019-06-20T17:45:15.810Z,1.50
2019-06-20T17:47:44.830Z,2.63
2019-06-20T17:50:16.723Z,2.43
2019-06-20T17:52:45.350Z,1.40
2019-06-20T17:55:14.831Z,1.73
2019-06-20T17:57:43.827Z,1.57
2019-06-20T18:00:15.229Z,1.30
2019-06-20T18:02:43.982Z,1.47
2019-06-20T18:05:13.199Z,1.43
2019-06-20T18:07:42.295Z,2.23
2019-06-20T18:10:11.718Z,1.70
2019-06-20T18:12:40.599Z,2.23
2019-06-20T18:15:11.298Z,3.77
2019-06-20T18:17:39.995Z,1.47
2019-06-20T18:20:10.123Z,2.07
2019-06-20T18:22:39.015Z,2.23
2019-06-20T18:25:08.781Z,2.03
2019-06-20T18:27:37.423Z,1.23
2019-06-20T18:30:07.569Z,3.20
2019-06-20T18:32:36.142Z,1.40
2019-06-20T18:35:07.273Z,2.17
2019-06-20T18:37:36.601Z,3.20
2019-06-20T18:40:06.981Z,2.73
2019-06-20T18:42:35.687Z,2.17
2019-06-20T18:45:06.682Z,3.47
2019-06-20T18:47:35.550Z,1.77
2019-06-20T18:50:05.607Z,3.73
2019-06-20T18:52:48.151Z,2.43
2019-06-20T18:55:09.568Z,2.70
2019-06-20T18:57:38.268Z,2.30
2019-06-20T19:00:08.472Z,2.07
2019-06-20T19:02:37.178Z,1.87
2019-06-20T19:05:10.619Z,2.20
2019-06-20T19:07:39.616Z,2.17
2019-06-20T19:10:11.259Z,1.80
2019-06-20T19:12:39.852Z,3.90
2019-06-20T19:15:08.946Z,2.43
2019-06-20T19:17:37.617Z,2.50
2019-06-20T19:20:07.303Z,2.17
2019-06-20T19:22:35.998Z,2.17
2019-06-20T19:25:08.299Z,1.50
2019-06-20T19:27:46.157Z,1.83
2019-06-20T19:30:13.924Z,2.60
2019-06-20T19:32:42.843Z,1.80
2019-06-20T19:35:11.671Z,4.13
2019-06-20T19:37:40.507Z,2.03
2019-06-20T19:40:10.485Z,2.67
2019-06-20T19:42:39.139Z,2.17
2019-06-20T19:45:10.274Z,2.00
2019-06-20T19:47:39.394Z,2.23
2019-06-20T19:50:08.659Z,2.10
2019-06-20T19:52:37.507Z,2.77
2019-06-20T19:55:06.760Z,2.57
2019-06-20T19:57:35.756Z,1.70
2019-06-20T20:00:07.361Z,1.70
2019-06-20T20:02:36.555Z,1.70
2019-06-20T20:05:18.321Z,1.70
2019-06-20T20:07:38.991Z,3.40
2019-06-20T20:10:09.260Z,2.00
2019-06-20T20:12:38.315Z,2.23
2019-06-20T20:15:10.288Z,2.50
2019-06-20T20:17:38.872Z,2.20
2019-06-20T20:20:08.778Z,2.33
2019-06-20T20:22:37.430Z,2.20
2019-06-20T20:25:09.743Z,2.13
2019-06-20T20:27:38.471Z,2.03
2019-06-20T20:30:12.165Z,1.80
2019-06-20T20:32:40.895Z,2.97
2019-06-20T20:35:09.909Z,3.83
2019-06-20T20:37:38.504Z,3.30
2019-06-20T20:40:10.101Z,3.47
2019-06-20T20:42:39.012Z,3.57
2019-06-20T20:45:08.219Z,4.13
2019-06-20T20:47:37.226Z,2.73
2019-06-20T20:50:09.849Z,4.40
2019-06-20T20:52:38.675Z,4.43
2019-06-20T20:55:08.926Z,2.63
2019-06-20T20:57:37.922Z,2.60
2019-06-20T21:00:11.374Z,3.40
2019-06-20T21:02:40.490Z,3.50
2019-06-20T21:05:09.759Z,2.40
2019-06-20T21:07:39.270Z,2.87
2019-06-20T21:10:08.815Z,4.17
2019-06-20T21:12:37.447Z,4.40
2019-06-20T21:15:09.314Z,3.00
2019-06-20T21:17:37.987Z,6.00
2019-06-20T21:20:07.942Z,3.03
2019-06-20T21:22:36.575Z,2.70
2019-06-20T21:25:07.045Z,3.53
2019-06-20T21:27:35.671Z,2.60
2019-06-20T21:30:06.935Z,3.40
2019-06-20T21:32:35.662Z,4.33
2019-06-20T21:35:06.561Z,3.43
2019-06-20T21:37:35.281Z,2.63
2019-06-20T21:40:05.943Z,3.93
2019-06-20T21:42:34.904Z,3.30
2019-06-20T21:45:05.443Z,3.13
2019-06-20T21:47:34.146Z,4.63
2019-06-20T21:50:02.907Z,3.77
2019-06-20T21:52:31.459Z,2.97
2019-06-20T21:55:00.132Z,5.17
2019-06-20T21:57:28.720Z,4.50
2019-06-20T21:59:57.348Z,3.70
2019-06-20T22:02:26.339Z,4.23
2019-06-20T22:04:55.018Z,3.70
2019-06-20T22:07:24.196Z,6.60
2019-06-20T22:09:52.784Z,3.80
2019-06-20T22:12:21.555Z,5.63
2019-06-20T22:14:50.489Z,5.13
2019-06-20T22:17:19.184Z,5.20
2019-06-20T22:19:47.839Z,4.43
2019-06-20T22:22:16.841Z,4.47
2019-06-20T22:24:45.495Z,3.57
2019-06-20T22:27:14.196Z,4.87
2019-06-20T22:29:42.867Z,3.30
2019-06-20T22:32:11.491Z,5.97
2019-06-20T22:34:40.247Z,3.57
2019-06-20T22:37:09.166Z,3.73
2019-06-20T22:39:37.785Z,3.63
2019-06-20T22:42:06.832Z,4.90
2019-06-20T22:44:35.395Z,3.67
2019-06-20T22:47:04.304Z,6.77
2019-06-20T22:49:33.203Z,5.23
2019-06-20T22:52:01.764Z,4.27
2019-06-20T22:54:30.355Z,5.80
2019-06-20T22:56:59.017Z,4.13
2019-06-20T22:59:27.562Z,3.43
2019-06-20T23:01:56.523Z,4.60
2019-06-20T23:04:25.532Z,3.83
2019-06-20T23:06:56.616Z,4.47
2019-06-20T23:09:27.277Z,4.20
2019-06-20T23:11:55.267Z,4.60
2019-06-20T23:14:23.928Z,4.87
2019-06-20T23:16:52.511Z,5.67
2019-06-20T23:19:21.191Z,7.13
2019-06-20T23:21:50.121Z,5.77
2019-06-20T23:24:18.843Z,10.23
2019-06-20T23:26:47.407Z,5.30
2019-06-20T23:29:25.180Z,5.40
2019-06-20T23:31:54.930Z,5.10
2019-06-20T23:34:23.972Z,4.60
2019-06-20T23:36:52.613Z,4.67
2019-06-20T23:39:21.715Z,4.80
2019-06-20T23:41:50.279Z,5.33
2019-06-20T23:44:19.127Z,4.40
2019-06-20T23:46:47.780Z,6.23
2019-06-20T23:49:16.483Z,4.70
2019-06-20T23:51:50.094Z,4.90
2019-06-20T23:54:18.714Z,6.53
2019-06-20T23:56:47.674Z,4.30
2019-06-20T23:59:16.511Z,5.53
